sensor_id;sensor_type;location;lat;lon;timestamp;noise_LAeq;noise_LA_min;noise_LA_max;noise_LA01;noise_LA95
66589;Laerm;53447;49.272;11.070;2023-04-24T00:01:42;37.99;32.40;42.22;;
66589;Laerm;53447;49.272;11.070;2023-04-24T00:04:07;38.07;32.81;41.59;;
66589;Laerm;53447;49.272;11.070;2023-04-24T00:06:36;37.86;31.94;42.57;;
66589;Laerm;53447;49.272;11.070;2023-04-24T00:09:02;37.84;31.94;41.48;;
66589;Laerm;53447;49.272;11.070;2023-04-24T00:11:27;37.94;32.40;42.61;;
66589;Laerm;53447;49.272;11.070;2023-04-24T00:13:53;38.06;33.19;42.35;;
66589;Laerm;53447;49.272;11.070;2023-04-24T00:16:18;38.08;32.40;42.13;;
66589;Laerm;53447;49.272;11.070;2023-04-24T00:18:43;37.85;32.40;41.43;;
66589;Laerm;53447;49.272;11.070;2023-04-24T00:21:10;37.87;32.40;42.73;;
66589;Laerm;53447;49.272;11.070;2023-04-24T00:23:35;46.65;32.81;62.86;;
66589;Laerm;53447;49.272;11.070;2023-04-24T00:26:00;40.06;34.60;50.16;;
66589;Laerm;53447;49.272;11.070;2023-04-24T00:28:26;39.79;34.44;48.35;;
66589;Laerm;53447;49.272;11.070;2023-04-24T00:30:51;38.64;33.54;41.94;;
66589;Laerm;53447;49.272;11.070;2023-04-24T00:33:16;38.24;32.81;41.84;;
66589;Laerm;53447;49.272;11.070;2023-04-24T00:35:42;38.36;33.19;41.83;;
66589;Laerm;53447;49.272;11.070;2023-04-24T00:38:07;38.26;31.94;41.89;;
66589;Laerm;53447;49.272;11.070;2023-04-24T00:40:32;38.17;32.40;41.54;;
66589;Laerm;53447;49.272;11.070;2023-04-24T00:42:57;38.08;33.19;41.94;;
66589;Laerm;53447;49.272;11.070;2023-04-24T00:45:23;38.15;31.59;41.48;;
66589;Laerm;53447;49.272;11.070;2023-04-24T00:47:48;38.10;32.81;41.54;;
66589;Laerm;53447;49.272;11.070;2023-04-24T00:50:15;37.96;32.47;42.08;;
66589;Laerm;53447;49.272;11.070;2023-04-24T00:52:41;37.88;32.81;42.40;;
66589;Laerm;53447;49.272;11.070;2023-04-24T00:55:06;37.66;32.40;41.79;;
66589;Laerm;53447;49.272;11.070;2023-04-24T00:57:32;37.99;32.40;44.01;;
66589;Laerm;53447;49.272;11.070;2023-04-24T00:59:57;38.10;33.19;42.57;;
66589;Laerm;53447;49.272;11.070;2023-04-24T01:02:23;38.35;33.19;42.08;;
66589;Laerm;53447;49.272;11.070;2023-04-24T01:04:50;38.08;32.40;41.43;;
66589;Laerm;53447;49.272;11.070;2023-04-24T01:07:16;37.97;32.40;41.64;;
66589;Laerm;53447;49.272;11.070;2023-04-24T01:09:42;37.98;32.40;41.89;;
66589;Laerm;53447;49.272;11.070;2023-04-24T01:12:08;38.24;33.51;42.04;;
66589;Laerm;53447;49.272;11.070;2023-04-24T01:14:34;38.40;33.54;41.79;;
66589;Laerm;53447;49.272;11.070;2023-04-24T01:16:59;38.18;32.40;42.22;;
66589;Laerm;53447;49.272;11.070;2023-04-24T01:19:25;38.22;33.19;41.26;;
66589;Laerm;53447;49.272;11.070;2023-04-24T01:21:50;38.12;32.81;42.08;;
66589;Laerm;53447;49.272;11.070;2023-04-24T01:24:18;38.19;33.19;41.99;;
66589;Laerm;53447;49.272;11.070;2023-04-24T01:26:44;37.93;31.94;41.94;;
66589;Laerm;53447;49.272;11.070;2023-04-24T01:29:10;38.03;32.05;43.54;;
66589;Laerm;53447;49.272;11.070;2023-04-24T01:31:35;38.05;33.19;43.39;;
66589;Laerm;53447;49.272;11.070;2023-04-24T01:34:01;40.09;33.51;46.58;;
66589;Laerm;53447;49.272;11.070;2023-04-24T01:36:27;38.52;32.81;42.44;;
66589;Laerm;53447;49.272;11.070;2023-04-24T01:38:53;37.91;32.40;42.10;;
66589;Laerm;53447;49.272;11.070;2023-04-24T01:41:19;40.47;32.40;50.50;;
66589;Laerm;53447;49.272;11.070;2023-04-24T01:43:45;48.11;35.19;65.47;;
66589;Laerm;53447;49.272;11.070;2023-04-24T01:46:10;38.23;33.19;42.44;;
66589;Laerm;53447;49.272;11.070;2023-04-24T01:48:36;38.02;33.19;41.43;;
66589;Laerm;53447;49.272;11.070;2023-04-24T01:51:01;38.01;32.81;41.84;;
66589;Laerm;53447;49.272;11.070;2023-04-24T01:53:26;38.27;32.81;42.69;;
66589;Laerm;53447;49.272;11.070;2023-04-24T01:55:52;38.35;32.81;41.64;;
66589;Laerm;53447;49.272;11.070;2023-04-24T01:58:17;38.31;32.40;42.22;;
66589;Laerm;53447;49.272;11.070;2023-04-24T02:00:42;38.62;33.54;42.65;;
66589;Laerm;53447;49.272;11.070;2023-04-24T02:03:08;42.32;34.95;51.40;;
66589;Laerm;53447;49.272;11.070;2023-04-24T02:05:33;40.76;34.95;48.00;;
66589;Laerm;53447;49.272;11.070;2023-04-24T02:07:58;38.69;33.54;42.49;;
66589;Laerm;53447;49.272;11.070;2023-04-24T02:10:23;38.58;33.86;42.69;;
66589;Laerm;53447;49.272;11.070;2023-04-24T02:12:50;41.64;36.55;51.48;;
66589;Laerm;53447;49.272;11.070;2023-04-24T02:15:15;38.75;33.54;41.79;;
66589;Laerm;53447;49.272;11.070;2023-04-24T02:17:41;38.39;33.19;42.22;;
66589;Laerm;53447;49.272;11.070;2023-04-24T02:20:07;38.32;33.19;41.84;;
66589;Laerm;53447;49.272;11.070;2023-04-24T02:22:32;38.40;33.54;42.44;;
66589;Laerm;53447;49.272;11.070;2023-04-24T02:24:57;40.10;33.54;43.26;;
66589;Laerm;53447;49.272;11.070;2023-04-24T02:27:23;41.13;37.45;43.12;;
66589;Laerm;53447;49.272;11.070;2023-04-24T02:29:48;40.52;34.44;43.15;;
66589;Laerm;53447;49.272;11.070;2023-04-24T02:32:13;41.89;35.62;50.13;;
66589;Laerm;53447;49.272;11.070;2023-04-24T02:34:40;40.77;36.20;44.85;;
66589;Laerm;53447;49.272;11.070;2023-04-24T02:37:05;38.65;33.19;42.49;;
66589;Laerm;53447;49.272;11.070;2023-04-24T02:39:31;38.73;34.44;50.46;;
66589;Laerm;53447;49.272;11.070;2023-04-24T02:41:56;38.86;34.16;42.27;;
66589;Laerm;53447;49.272;11.070;2023-04-24T02:44:21;39.98;35.19;48.84;;
66589;Laerm;53447;49.272;11.070;2023-04-24T02:46:47;41.83;36.55;49.35;;
66589;Laerm;53447;49.272;11.070;2023-04-24T02:49:12;39.30;33.19;42.40;;
66589;Laerm;53447;49.272;11.070;2023-04-24T02:51:38;38.90;34.16;45.45;;
66589;Laerm;53447;49.272;11.070;2023-04-24T02:54:06;41.28;35.41;55.09;;
66589;Laerm;53447;49.272;11.070;2023-04-24T02:56:31;39.21;34.16;48.71;;
66589;Laerm;53447;49.272;11.070;2023-04-24T02:58:56;39.24;34.16;54.99;;
66589;Laerm;53447;49.272;11.070;2023-04-24T03:01:22;40.60;34.95;63.83;;
66589;Laerm;53447;49.272;11.070;2023-04-24T03:03:47;47.53;38.42;62.29;;
66589;Laerm;53447;49.272;11.070;2023-04-24T03:06:12;50.53;37.84;68.93;;
66589;Laerm;53447;49.272;11.070;2023-04-24T03:08:37;49.23;37.71;72.13;;
66589;Laerm;53447;49.272;11.070;2023-04-24T03:11:03;50.81;37.31;72.61;;
66589;Laerm;53447;49.272;11.070;2023-04-24T03:13:28;49.58;38.31;70.03;;
66589;Laerm;53447;49.272;11.070;2023-04-24T03:15:53;53.72;37.45;68.94;;
66589;Laerm;53447;49.272;11.070;2023-04-24T03:18:19;56.66;37.84;72.62;;
66589;Laerm;53447;49.272;11.070;2023-04-24T03:20:47;56.65;37.71;74.67;;
66589;Laerm;53447;49.272;11.070;2023-04-24T03:23:13;57.05;37.45;74.51;;
66589;Laerm;53447;49.272;11.070;2023-04-24T03:25:38;56.96;37.45;76.54;;
66589;Laerm;53447;49.272;11.070;2023-04-24T03:28:03;56.04;39.56;73.99;;
66589;Laerm;53447;49.272;11.070;2023-04-24T03:30:29;55.84;38.63;69.85;;
66589;Laerm;53447;49.272;11.070;2023-04-24T03:32:55;56.90;38.93;73.75;;
66589;Laerm;53447;49.272;11.070;2023-04-24T03:35:20;56.90;39.39;69.93;;
66589;Laerm;53447;49.272;11.070;2023-04-24T03:37:47;55.97;38.63;71.34;;
66589;Laerm;53447;49.272;11.070;2023-04-24T03:40:12;58.28;40.25;72.78;;
66589;Laerm;53447;49.272;11.070;2023-04-24T03:42:37;58.13;40.59;73.23;;
66589;Laerm;53447;49.272;11.070;2023-04-24T03:45:03;57.47;40.91;74.15;;
66589;Laerm;53447;49.272;11.070;2023-04-24T03:47:28;58.58;40.79;72.73;;
66589;Laerm;53447;49.272;11.070;2023-04-24T03:49:53;58.13;41.74;72.01;;
66589;Laerm;53447;49.272;11.070;2023-04-24T03:52:20;56.20;42.40;67.52;;
66589;Laerm;53447;49.272;11.070;2023-04-24T03:54:46;55.78;43.02;66.98;;
66589;Laerm;53447;49.272;11.070;2023-04-24T03:57:11;56.38;41.74;66.54;;
66589;Laerm;53447;49.272;11.070;2023-04-24T03:59:36;56.66;41.89;70.36;;
66589;Laerm;53447;49.272;11.070;2023-04-24T04:02:01;58.93;45.64;71.16;;
66589;Laerm;53447;49.272;11.070;2023-04-24T04:04:27;60.13;44.41;71.59;;
66589;Laerm;53447;49.272;11.070;2023-04-24T04:06:52;57.49;43.67;70.09;;
66589;Laerm;53447;49.272;11.070;2023-04-24T04:09:18;57.17;42.08;67.83;;
66589;Laerm;53447;49.272;11.070;2023-04-24T04:11:43;58.09;39.96;69.15;;
66589;Laerm;53447;49.272;11.070;2023-04-24T04:14:08;57.84;42.97;67.86;;
66589;Laerm;53447;49.272;11.070;2023-04-24T04:16:34;58.32;43.40;68.75;;
66589;Laerm;53447;49.272;11.070;2023-04-24T04:19:01;56.97;41.21;68.05;;
66589;Laerm;53447;49.272;11.070;2023-04-24T04:21:27;54.65;39.96;66.76;;
66589;Laerm;53447;49.272;11.070;2023-04-24T04:23:53;54.13;39.04;66.71;;
66589;Laerm;53447;49.272;11.070;2023-04-24T04:26:18;50.64;40.03;65.80;;
66589;Laerm;53447;49.272;11.070;2023-04-24T04:28:44;52.48;39.69;64.43;;
66589;Laerm;53447;49.272;11.070;2023-04-24T04:31:09;56.26;39.88;65.93;;
66589;Laerm;53447;49.272;11.070;2023-04-24T04:33:35;54.38;39.80;65.02;;
66589;Laerm;53447;49.272;11.070;2023-04-24T04:36:01;55.37;40.18;66.72;;
66589;Laerm;53447;49.272;11.070;2023-04-24T04:38:26;52.92;39.48;65.31;;
66589;Laerm;53447;49.272;11.070;2023-04-24T04:40:54;54.41;40.03;65.78;;
66589;Laerm;53447;49.272;11.070;2023-04-24T04:43:22;57.68;39.21;69.28;;
66589;Laerm;53447;49.272;11.070;2023-04-24T04:45:47;55.21;38.73;68.07;;
66589;Laerm;53447;49.272;11.070;2023-04-24T04:48:13;54.68;40.18;67.99;;
66589;Laerm;53447;49.272;11.070;2023-04-24T04:50:39;53.20;38.83;69.45;;
66589;Laerm;53447;49.272;11.070;2023-04-24T04:53:04;52.49;39.04;66.81;;
66589;Laerm;53447;49.272;11.070;2023-04-24T04:55:30;54.81;38.93;67.14;;
66589;Laerm;53447;49.272;11.070;2023-04-24T04:57:55;50.38;38.31;65.97;;
66589;Laerm;53447;49.272;11.070;2023-04-24T05:00:21;55.27;38.83;68.50;;
66589;Laerm;53447;49.272;11.070;2023-04-24T05:02:49;55.66;39.03;69.51;;
66589;Laerm;53447;49.272;11.070;2023-04-24T05:05:14;54.08;39.56;67.83;;
66589;Laerm;53447;49.272;11.070;2023-04-24T05:07:42;55.43;39.39;67.33;;
66589;Laerm;53447;49.272;11.070;2023-04-24T05:10:07;57.01;39.48;70.89;;
66589;Laerm;53447;49.272;11.070;2023-04-24T05:12:32;54.76;38.73;67.39;;
66589;Laerm;53447;49.272;11.070;2023-04-24T05:14:58;57.94;41.21;71.96;;
66589;Laerm;53447;49.272;11.070;2023-04-24T05:17:23;53.93;39.48;65.74;;
66589;Laerm;53447;49.272;11.070;2023-04-24T05:19:48;52.69;39.21;64.88;;
66589;Laerm;53447;49.272;11.070;2023-04-24T05:22:14;54.58;38.42;71.60;;
66589;Laerm;53447;49.272;11.070;2023-04-24T05:24:39;57.41;39.64;70.10;;
66589;Laerm;53447;49.272;11.070;2023-04-24T05:27:05;52.65;38.73;65.26;;
66589;Laerm;53447;49.272;11.070;2023-04-24T05:29:30;54.91;38.68;67.44;;
66589;Laerm;53447;49.272;11.070;2023-04-24T05:31:57;52.32;39.13;65.03;;
66589;Laerm;53447;49.272;11.070;2023-04-24T05:34:22;54.35;37.96;67.52;;
66589;Laerm;53447;49.272;11.070;2023-04-24T05:36:47;53.03;38.20;66.06;;
66589;Laerm;53447;49.272;11.070;2023-04-24T05:39:13;48.44;39.21;64.41;;
66589;Laerm;53447;49.272;11.070;2023-04-24T05:41:38;55.43;39.12;70.77;;
66589;Laerm;53447;49.272;11.070;2023-04-24T05:44:04;55.02;40.66;66.44;;
66589;Laerm;53447;49.272;11.070;2023-04-24T05:46:29;56.10;39.56;69.94;;
66589;Laerm;53447;49.272;11.070;2023-04-24T05:48:54;54.13;39.80;66.00;;
66589;Laerm;53447;49.272;11.070;2023-04-24T05:51:20;53.86;39.48;65.70;;
66589;Laerm;53447;49.272;11.070;2023-04-24T05:53:45;55.02;39.72;69.18;;
66589;Laerm;53447;49.272;11.070;2023-04-24T05:56:10;54.09;38.93;67.63;;
66589;Laerm;53447;49.272;11.070;2023-04-24T05:58:36;55.23;38.93;68.19;;
66589;Laerm;53447;49.272;11.070;2023-04-24T06:01:02;55.46;39.48;68.39;;
66589;Laerm;53447;49.272;11.070;2023-04-24T06:03:28;53.50;39.64;66.67;;
66589;Laerm;53447;49.272;11.070;2023-04-24T06:05:53;48.89;39.64;67.06;;
66589;Laerm;53447;49.272;11.070;2023-04-24T06:08:19;55.61;39.21;69.91;;
66589;Laerm;53447;49.272;11.070;2023-04-24T06:10:44;55.95;38.31;73.07;;
66589;Laerm;53447;49.272;11.070;2023-04-24T06:13:10;51.99;37.96;67.47;;
66589;Laerm;53447;49.272;11.070;2023-04-24T06:15:36;47.80;38.08;63.52;;
66589;Laerm;53447;49.272;11.070;2023-04-24T06:18:01;51.97;38.93;70.40;;
66589;Laerm;53447;49.272;11.070;2023-04-24T06:20:27;51.85;38.31;69.89;;
66589;Laerm;53447;49.272;11.070;2023-04-24T06:22:53;56.85;37.96;71.93;;
66589;Laerm;53447;49.272;11.070;2023-04-24T06:25:18;56.63;37.45;69.18;;
66589;Laerm;53447;49.272;11.070;2023-04-24T06:27:44;57.69;39.88;69.15;;
66589;Laerm;53447;49.272;11.070;2023-04-24T06:30:09;55.63;38.20;68.70;;
66589;Laerm;53447;49.272;11.070;2023-04-24T06:32:35;55.01;38.31;68.75;;
66589;Laerm;53447;49.272;11.070;2023-04-24T06:35:00;56.07;37.84;69.34;;
66589;Laerm;53447;49.272;11.070;2023-04-24T06:37:25;56.02;39.03;69.46;;
66589;Laerm;53447;49.272;11.070;2023-04-24T06:39:51;51.11;39.21;67.62;;
66589;Laerm;53447;49.272;11.070;2023-04-24T06:42:16;55.62;38.63;67.92;;
66589;Laerm;53447;49.272;11.070;2023-04-24T06:44:41;52.62;38.83;68.44;;
66589;Laerm;53447;49.272;11.070;2023-04-24T06:47:08;54.41;40.32;68.73;;
66589;Laerm;53447;49.272;11.070;2023-04-24T06:49:34;57.11;40.91;68.08;;
66589;Laerm;53447;49.272;11.070;2023-04-24T06:51:59;57.19;41.32;69.38;;
66589;Laerm;53447;49.272;11.070;2023-04-24T06:54:25;57.15;40.03;67.93;;
66589;Laerm;53447;49.272;11.070;2023-04-24T06:56:50;58.72;39.03;81.67;;
66589;Laerm;53447;49.272;11.070;2023-04-24T06:59:17;55.70;38.31;70.98;;
66589;Laerm;53447;49.272;11.070;2023-04-24T07:01:42;55.50;40.25;68.16;;
66589;Laerm;53447;49.272;11.070;2023-04-24T07:04:07;57.62;39.88;69.52;;
66589;Laerm;53447;49.272;11.070;2023-04-24T07:06:32;54.45;38.31;66.59;;
66589;Laerm;53447;49.272;11.070;2023-04-24T07:08:58;54.51;37.71;66.01;;
66589;Laerm;53447;49.272;11.070;2023-04-24T07:11:24;55.87;37.71;67.08;;
66589;Laerm;53447;49.272;11.070;2023-04-24T07:13:54;56.11;39.30;70.83;;
66589;Laerm;53447;49.272;11.070;2023-04-24T07:16:19;54.07;38.93;66.84;;
66589;Laerm;53447;49.272;11.070;2023-04-24T07:18:44;53.78;37.96;65.78;;
66589;Laerm;53447;49.272;11.070;2023-04-24T07:21:10;53.99;37.58;69.03;;
66589;Laerm;53447;49.272;11.070;2023-04-24T07:23:35;55.91;38.63;70.56;;
66589;Laerm;53447;49.272;11.070;2023-04-24T07:26:01;56.95;35.82;74.11;;
66589;Laerm;53447;49.272;11.070;2023-04-24T07:28:26;48.12;37.58;65.73;;
66589;Laerm;53447;49.272;11.070;2023-04-24T07:30:51;48.37;38.20;67.18;;
66589;Laerm;53447;49.272;11.070;2023-04-24T07:33:18;54.24;38.31;67.37;;
66589;Laerm;53447;49.272;11.070;2023-04-24T07:35:44;54.11;38.20;71.07;;
66589;Laerm;53447;49.272;11.070;2023-04-24T07:38:09;54.28;37.58;67.12;;
66589;Laerm;53447;49.272;11.070;2023-04-24T07:40:35;58.23;38.73;75.85;;
66589;Laerm;53447;49.272;11.070;2023-04-24T07:43:00;52.57;37.71;67.45;;
66589;Laerm;53447;49.272;11.070;2023-04-24T07:45:25;52.57;38.20;68.66;;
66589;Laerm;53447;49.272;11.070;2023-04-24T07:47:52;54.32;40.53;75.85;;
66589;Laerm;53447;49.272;11.070;2023-04-24T07:50:18;56.49;39.88;73.35;;
66589;Laerm;53447;49.272;11.070;2023-04-24T07:52:43;54.85;39.39;70.83;;
66589;Laerm;53447;49.272;11.070;2023-04-24T07:55:08;52.24;38.73;66.33;;
66589;Laerm;53447;49.272;11.070;2023-04-24T07:57:34;54.06;39.64;70.76;;
66589;Laerm;53447;49.272;11.070;2023-04-24T07:59:59;54.46;40.11;73.44;;
66589;Laerm;53447;49.272;11.070;2023-04-24T08:02:24;55.71;40.53;71.99;;
66589;Laerm;53447;49.272;11.070;2023-04-24T08:04:52;54.18;40.25;66.41;;
66589;Laerm;53447;49.272;11.070;2023-04-24T08:07:18;52.45;39.72;65.17;;
66589;Laerm;53447;49.272;11.070;2023-04-24T08:09:43;52.03;40.03;69.83;;
66589;Laerm;53447;49.272;11.070;2023-04-24T08:12:08;48.59;38.73;66.36;;
66589;Laerm;53447;49.272;11.070;2023-04-24T08:14:34;52.20;39.72;66.24;;
66589;Laerm;53447;49.272;11.070;2023-04-24T08:16:59;55.22;38.53;70.56;;
66589;Laerm;53447;49.272;11.070;2023-04-24T08:19:25;53.26;38.31;69.50;;
66589;Laerm;53447;49.272;11.070;2023-04-24T08:21:50;52.61;38.53;65.73;;
66589;Laerm;53447;49.272;11.070;2023-04-24T08:24:16;51.24;37.96;65.87;;
66589;Laerm;53447;49.272;11.070;2023-04-24T08:26:41;53.15;40.46;69.35;;
66589;Laerm;53447;49.272;11.070;2023-04-24T08:29:06;55.16;39.88;67.79;;
66589;Laerm;53447;49.272;11.070;2023-04-24T08:31:32;53.87;38.08;68.63;;
66589;Laerm;53447;49.272;11.070;2023-04-24T08:33:57;48.44;38.42;67.55;;
66589;Laerm;53447;49.272;11.070;2023-04-24T08:36:22;53.08;39.03;71.86;;
66589;Laerm;53447;49.272;11.070;2023-04-24T08:38:48;51.07;38.20;65.98;;
66589;Laerm;53447;49.272;11.070;2023-04-24T08:41:14;54.01;39.72;66.98;;
66589;Laerm;53447;49.272;11.070;2023-04-24T08:43:39;53.54;39.53;71.72;;
66589;Laerm;53447;49.272;11.070;2023-04-24T08:46:05;54.94;39.72;67.61;;
66589;Laerm;53447;49.272;11.070;2023-04-24T08:48:30;53.93;37.58;68.78;;
66589;Laerm;53447;49.272;11.070;2023-04-24T08:50:56;55.17;39.72;71.66;;
66589;Laerm;53447;49.272;11.070;2023-04-24T08:53:22;52.27;40.46;64.94;;
66589;Laerm;53447;49.272;11.070;2023-04-24T08:55:48;53.93;39.56;66.74;;
66589;Laerm;53447;49.272;11.070;2023-04-24T08:58:15;54.87;39.03;70.23;;
66589;Laerm;53447;49.272;11.070;2023-04-24T09:00:41;50.34;37.96;66.31;;
66589;Laerm;53447;49.272;11.070;2023-04-24T09:03:11;49.89;38.93;65.28;;
66589;Laerm;53447;49.272;11.070;2023-04-24T09:05:37;56.67;39.64;72.56;;
66589;Laerm;53447;49.272;11.070;2023-04-24T09:08:03;52.63;38.93;67.03;;
66589;Laerm;53447;49.272;11.070;2023-04-24T09:10:29;52.28;38.63;73.04;;
66589;Laerm;53447;49.272;11.070;2023-04-24T09:12:55;52.62;39.21;65.86;;
66589;Laerm;53447;49.272;11.070;2023-04-24T09:15:21;52.87;38.53;70.79;;
66589;Laerm;53447;49.272;11.070;2023-04-24T09:17:47;48.74;36.87;66.91;;
66589;Laerm;53447;49.272;11.070;2023-04-24T09:20:12;51.11;38.08;67.45;;
66589;Laerm;53447;49.272;11.070;2023-04-24T09:22:37;53.95;39.64;67.51;;
66589;Laerm;53447;49.272;11.070;2023-04-24T09:25:04;51.72;39.39;68.04;;
66589;Laerm;53447;49.272;11.070;2023-04-24T09:27:31;54.16;40.39;70.15;;
66589;Laerm;53447;49.272;11.070;2023-04-24T09:29:56;54.34;40.32;78.98;;
66589;Laerm;53447;49.272;11.070;2023-04-24T09:32:22;53.93;39.48;77.70;;
66589;Laerm;53447;49.272;11.070;2023-04-24T09:34:49;54.15;40.39;72.30;;
66589;Laerm;53447;49.272;11.070;2023-04-24T09:37:28;57.58;41.15;78.47;;
66589;Laerm;53447;49.272;11.070;2023-04-24T09:40:14;55.65;39.03;72.12;;
66589;Laerm;53447;49.272;11.070;2023-04-24T09:42:42;53.86;36.87;74.15;;
66589;Laerm;53447;49.272;11.070;2023-04-24T09:45:08;50.56;38.08;64.96;;
66589;Laerm;53447;49.272;11.070;2023-04-24T09:47:38;51.57;38.53;66.00;;
66589;Laerm;53447;49.272;11.070;2023-04-24T09:50:13;51.72;38.63;67.77;;
66589;Laerm;53447;49.272;11.070;2023-04-24T09:52:56;57.00;38.53;71.96;;
66589;Laerm;53447;49.272;11.070;2023-04-24T09:55:21;53.24;37.96;70.37;;
66589;Laerm;53447;49.272;11.070;2023-04-24T09:57:57;55.90;39.48;70.82;;
66589;Laerm;53447;49.272;11.070;2023-04-24T10:02:53;57.50;41.15;73.23;;
66589;Laerm;53447;49.272;11.070;2023-04-24T10:05:19;51.67;39.56;69.94;;
66589;Laerm;53447;49.272;11.070;2023-04-24T10:07:47;53.27;39.80;65.16;;
66589;Laerm;53447;49.272;11.070;2023-04-24T10:10:12;50.80;38.83;65.66;;
66589;Laerm;53447;49.272;11.070;2023-04-24T10:12:38;52.69;38.93;67.06;;
66589;Laerm;53447;49.272;11.070;2023-04-24T10:15:04;55.12;38.73;76.14;;
66589;Laerm;53447;49.272;11.070;2023-04-24T10:17:30;78.20;39.48;90.38;;
66589;Laerm;53447;49.272;11.070;2023-04-24T10:19:56;68.29;39.96;81.17;;
66589;Laerm;53447;49.272;11.070;2023-04-24T10:22:22;52.54;40.18;77.86;;
66589;Laerm;53447;49.272;11.070;2023-04-24T10:24:47;53.10;40.39;67.59;;
66589;Laerm;53447;49.272;11.070;2023-04-24T10:27:14;53.79;40.72;70.86;;
66589;Laerm;53447;49.272;11.070;2023-04-24T10:29:40;59.25;41.59;82.10;;
66589;Laerm;53447;49.272;11.070;2023-04-24T10:32:06;49.75;39.88;65.43;;
66589;Laerm;53447;49.272;11.070;2023-04-24T10:34:31;52.17;40.46;73.35;;
66589;Laerm;53447;49.272;11.070;2023-04-24T10:36:57;56.46;41.32;74.17;;
66589;Laerm;53447;49.272;11.070;2023-04-24T10:39:22;53.12;41.32;66.99;;
66589;Laerm;53447;49.272;11.070;2023-04-24T10:41:51;52.26;41.69;70.35;;
66589;Laerm;53447;49.272;11.070;2023-04-24T10:44:16;57.72;42.93;78.95;;
66589;Laerm;53447;49.272;11.070;2023-04-24T10:46:45;55.41;41.26;77.13;;
66589;Laerm;53447;49.272;11.070;2023-04-24T10:49:12;55.70;40.46;71.28;;
66589;Laerm;53447;49.272;11.070;2023-04-24T10:56:52;52.17;41.09;67.33;;
66589;Laerm;53447;49.272;11.070;2023-04-24T10:59:25;51.82;40.46;67.45;;
66589;Laerm;53447;49.272;11.070;2023-04-24T11:01:54;51.98;40.46;72.83;;
66589;Laerm;53447;49.272;11.070;2023-04-24T11:04:32;51.21;40.25;67.03;;
66589;Laerm;53447;49.272;11.070;2023-04-24T11:06:57;54.88;41.48;70.83;;
66589;Laerm;53447;49.272;11.070;2023-04-24T11:09:22;56.96;42.27;75.97;;
66589;Laerm;53447;49.272;11.070;2023-04-24T11:11:51;54.81;42.61;71.31;;
66589;Laerm;53447;49.272;11.070;2023-04-24T11:14:27;53.57;42.31;69.26;;
66589;Laerm;53447;49.272;11.070;2023-04-24T11:16:53;57.78;42.51;79.39;;
66589;Laerm;53447;49.272;11.070;2023-04-24T11:24:27;45.60;39.56;60.00;;
66589;Laerm;53447;49.272;11.070;2023-04-24T11:27:04;54.20;39.96;71.01;;
66589;Laerm;53447;49.272;11.070;2023-04-24T11:29:40;53.54;39.96;69.75;;
66589;Laerm;53447;49.272;11.070;2023-04-24T11:32:15;50.55;39.56;67.26;;
66589;Laerm;53447;49.272;11.070;2023-04-24T11:34:44;58.86;38.73;70.06;;
66589;Laerm;53447;49.272;11.070;2023-04-24T11:37:10;58.70;39.21;78.03;;
66589;Laerm;53447;49.272;11.070;2023-04-24T11:39:38;54.91;40.39;69.80;;
66589;Laerm;53447;49.272;11.070;2023-04-24T11:42:03;54.46;40.39;76.88;;
66589;Laerm;53447;49.272;11.070;2023-04-24T11:44:31;53.87;40.79;70.09;;
66589;Laerm;53447;49.272;11.070;2023-04-24T11:46:56;54.24;41.26;71.10;;
66589;Laerm;53447;49.272;11.070;2023-04-24T11:49:22;54.15;39.21;73.47;;
66589;Laerm;53447;49.272;11.070;2023-04-24T11:51:47;63.79;39.30;88.09;;
66589;Laerm;53447;49.272;11.070;2023-04-24T11:54:12;59.58;41.21;80.54;;
66589;Laerm;53447;49.272;11.070;2023-04-24T11:56:37;55.17;42.04;72.04;;
66589;Laerm;53447;49.272;11.070;2023-04-24T11:59:03;51.97;41.29;68.63;;
66589;Laerm;53447;49.272;11.070;2023-04-24T12:01:29;47.39;40.59;64.93;;
66589;Laerm;53447;49.272;11.070;2023-04-24T12:03:59;54.88;40.32;72.88;;
66589;Laerm;53447;49.272;11.070;2023-04-24T12:06:24;54.90;41.59;74.06;;
66589;Laerm;53447;49.272;11.070;2023-04-24T12:08:50;54.70;40.39;74.60;;
66589;Laerm;53447;49.272;11.070;2023-04-24T12:11:17;57.57;40.46;83.19;;
66589;Laerm;53447;49.272;11.070;2023-04-24T12:13:43;56.48;40.59;72.97;;
66589;Laerm;53447;49.272;11.070;2023-04-24T12:16:09;53.08;39.56;67.93;;
66589;Laerm;53447;49.272;11.070;2023-04-24T12:18:34;56.47;40.31;76.50;;
66589;Laerm;53447;49.272;11.070;2023-04-24T12:21:15;59.46;39.88;78.39;;
66589;Laerm;53447;49.272;11.070;2023-04-24T12:23:42;60.43;38.83;68.29;;
66589;Laerm;53447;49.272;11.070;2023-04-24T12:26:07;56.40;42.61;78.63;;
66589;Laerm;53447;49.272;11.070;2023-04-24T12:28:36;54.34;40.39;71.71;;
66589;Laerm;53447;49.272;11.070;2023-04-24T12:31:02;54.46;40.03;76.37;;
66589;Laerm;53447;49.272;11.070;2023-04-24T12:33:27;53.14;40.79;74.07;;
66589;Laerm;53447;49.272;11.070;2023-04-24T12:35:53;50.68;40.11;69.52;;
66589;Laerm;53447;49.272;11.070;2023-04-24T12:38:22;51.79;39.48;69.74;;
66589;Laerm;53447;49.272;11.070;2023-04-24T12:41:00;50.64;39.48;71.82;;
66589;Laerm;53447;49.272;11.070;2023-04-24T12:43:26;50.31;40.03;68.61;;
66589;Laerm;53447;49.272;11.070;2023-04-24T12:45:51;44.67;39.21;63.75;;
66589;Laerm;53447;49.272;11.070;2023-04-24T12:48:16;54.66;39.39;79.27;;
66589;Laerm;53447;49.272;11.070;2023-04-24T12:50:42;50.64;39.12;64.47;;
66589;Laerm;53447;49.272;11.070;2023-04-24T12:53:08;56.55;40.79;74.19;;
66589;Laerm;53447;49.272;11.070;2023-04-24T12:55:34;50.83;42.18;75.11;;
66589;Laerm;53447;49.272;11.070;2023-04-24T12:57:59;52.43;41.43;71.67;;
66589;Laerm;53447;49.272;11.070;2023-04-24T13:00:24;49.99;40.59;67.40;;
66589;Laerm;53447;49.272;11.070;2023-04-24T13:02:50;54.50;39.72;69.97;;
66589;Laerm;53447;49.272;11.070;2023-04-24T13:05:16;49.65;37.84;68.20;;
66589;Laerm;53447;49.272;11.070;2023-04-24T13:07:41;49.78;40.53;67.32;;
66589;Laerm;53447;49.272;11.070;2023-04-24T13:10:06;48.09;40.79;61.49;;
66589;Laerm;53447;49.272;11.070;2023-04-24T13:12:32;50.28;40.03;68.97;;
66589;Laerm;53447;49.272;11.070;2023-04-24T13:14:57;54.19;39.72;69.85;;
66589;Laerm;53447;49.272;11.070;2023-04-24T13:17:23;47.88;39.21;67.29;;
66589;Laerm;53447;49.272;11.070;2023-04-24T13:19:49;47.57;40.03;70.21;;
66589;Laerm;53447;49.272;11.070;2023-04-24T13:22:15;48.35;39.64;66.49;;
66589;Laerm;53447;49.272;11.070;2023-04-24T13:24:40;51.19;40.66;63.35;;
66589;Laerm;53447;49.272;11.070;2023-04-24T13:27:06;50.08;40.11;65.40;;
66589;Laerm;53447;49.272;11.070;2023-04-24T13:29:31;55.83;40.46;70.86;;
66589;Laerm;53447;49.272;11.070;2023-04-24T13:31:57;52.24;38.77;71.04;;
66589;Laerm;53447;49.272;11.070;2023-04-24T13:34:22;48.89;39.56;64.88;;
66589;Laerm;53447;49.272;11.070;2023-04-24T13:36:49;50.58;38.83;66.74;;
66589;Laerm;53447;49.272;11.070;2023-04-24T13:39:15;52.50;39.64;69.91;;